Aviation Digital Data Service (ADDS)

Output produced by METARs form (0009 UTC 23 March 2019)
found at http://www.aviationweather.gov/metar/data/
 
METAR text: KSWF 222345Z 30013G23KT 10SM BKN040 OVC060 05/M01 A2942
Conditions at: KSWF (NEWBURGH/STEWART, NY, US) observed 2345 UTC 22 March 2019
Temperature: 5.0°C (41°F)
Dewpoint: -1.0°C (30°F) [RH = 65%]
Pressure (altimeter): 29.42 inches Hg (996.4 mb)
Winds: from the WNW (300 degrees) at 15 MPH (13 knots; 6.7 m/s)
gusting to 26 MPH (23 knots; 11.8 m/s)
Visibility: 10 or more miles (16+ km)
Ceiling: 4000 feet AGL
Clouds: broken clouds at 4000 feet AGL
overcast cloud deck at 6000 feet AGL
Weather: no significant weather observed at this time

METAR text: KSWF 222245Z 30018G30KT 10SM BKN040 BKN090 06/M01 A2939
Conditions at: KSWF (NEWBURGH/STEWART, NY, US) observed 2245 UTC 22 March 2019
Temperature: 6.0°C (43°F)
Dewpoint: -1.0°C (30°F) [RH = 61%]
Pressure (altimeter): 29.39 inches Hg (995.3 mb)
Winds: from the WNW (300 degrees) at 21 MPH (18 knots; 9.3 m/s)
gusting to 34 MPH (30 knots; 15.4 m/s)
Visibility: 10 or more miles (16+ km)
Ceiling: 4000 feet AGL
Clouds: broken clouds at 4000 feet AGL
broken clouds at 9000 feet AGL
Weather: no significant weather observed at this time

METAR text: KSWF 222145Z 30022G30KT 10SM BKN040 07/00 A2936
Conditions at: KSWF (NEWBURGH/STEWART, NY, US) observed 2145 UTC 22 March 2019
Temperature: 7.0°C (45°F)
Dewpoint: 0.0°C (32°F) [RH = 61%]
Pressure (altimeter): 29.36 inches Hg (994.3 mb)
Winds: from the WNW (300 degrees) at 25 MPH (22 knots; 11.3 m/s)
gusting to 34 MPH (30 knots; 15.4 m/s)
Visibility: 10 or more miles (16+ km)
Ceiling: 4000 feet AGL
Clouds: broken clouds at 4000 feet AGL
Weather: no significant weather observed at this time

METAR text: KSWF 222045Z 30022G30KT 20SM BKN030 BKN050 06/00 A2935
Conditions at: KSWF (NEWBURGH/STEWART, NY, US) observed 2045 UTC 22 March 2019
Temperature: 6.0°C (43°F)
Dewpoint: 0.0°C (32°F) [RH = 65%]
Pressure (altimeter): 29.35 inches Hg (994.0 mb)
Winds: from the WNW (300 degrees) at 25 MPH (22 knots; 11.3 m/s)
gusting to 34 MPH (30 knots; 15.4 m/s)
Visibility: 20 miles (32 km)
Ceiling: 3000 feet AGL
Clouds: broken clouds at 3000 feet AGL
broken clouds at 5000 feet AGL
Weather: no significant weather observed at this time

METAR text: KSWF 221945Z 31014G24KT 20SM BKN030 OVC050 06/01 A2934
Conditions at: KSWF (NEWBURGH/STEWART, NY, US) observed 1945 UTC 22 March 2019
Temperature: 6.0°C (43°F)
Dewpoint: 1.0°C (34°F) [RH = 70%]
Pressure (altimeter): 29.34 inches Hg (993.6 mb)
Winds: from the NW (310 degrees) at 16 MPH (14 knots; 7.2 m/s)
gusting to 28 MPH (24 knots; 12.3 m/s)
Visibility: 20 miles (32 km)
Ceiling: 3000 feet AGL
Clouds: broken clouds at 3000 feet AGL
overcast cloud deck at 5000 feet AGL
Weather: no significant weather observed at this time

METAR text: KSWF 221845Z 31018G30KT 20SM BKN025 OVC040 06/01 A2934
Conditions at: KSWF (NEWBURGH/STEWART, NY, US) observed 1845 UTC 22 March 2019
Temperature: 6.0°C (43°F)
Dewpoint: 1.0°C (34°F) [RH = 70%]
Pressure (altimeter): 29.34 inches Hg (993.6 mb)
Winds: from the NW (310 degrees) at 21 MPH (18 knots; 9.3 m/s)
gusting to 34 MPH (30 knots; 15.4 m/s)
Visibility: 20 miles (32 km)
Ceiling: 2500 feet AGL
Clouds: broken clouds at 2500 feet AGL
overcast cloud deck at 4000 feet AGL
Weather: no significant weather observed at this time

METAR text: KSWF 221745Z 31015G25KT 20SM BKN015 OVC050 06/03 A2933
Conditions at: KSWF (NEWBURGH/STEWART, NY, US) observed 1745 UTC 22 March 2019
Temperature: 6.0°C (43°F)
Dewpoint: 3.0°C (37°F) [RH = 81%]
Pressure (altimeter): 29.33 inches Hg (993.3 mb)
Winds: from the NW (310 degrees) at 17 MPH (15 knots; 7.7 m/s)
gusting to 29 MPH (25 knots; 12.9 m/s)
Visibility: 20 miles (32 km)
Ceiling: 1500 feet AGL
Clouds: broken clouds at 1500 feet AGL
overcast cloud deck at 5000 feet AGL
Weather: no significant weather observed at this time

METAR text: KSWF 221645Z VRB05KT 7SM BKN012 OVC020 05/05 A2934
Conditions at: KSWF (NEWBURGH/STEWART, NY, US) observed 1645 UTC 22 March 2019
Temperature: 5.0°C (41°F)
Dewpoint: 5.0°C (41°F) [RH = 100%]
Pressure (altimeter): 29.34 inches Hg (993.6 mb)
Winds: variable direction winds at 6 MPH (5 knots; 2.6 m/s)
Visibility: 7 miles (11 km)
Ceiling: 1200 feet AGL
Clouds: broken clouds at 1200 feet AGL
overcast cloud deck at 2000 feet AGL
Weather: no significant weather observed at this time

METAR text: KSWF 221545Z VRB05KT 5SM -RA BR BKN012 OVC020 04/03 A2936
Conditions at: KSWF (NEWBURGH/STEWART, NY, US) observed 1545 UTC 22 March 2019
Temperature: 4.0°C (39°F)
Dewpoint: 3.0°C (37°F) [RH = 93%]
Pressure (altimeter): 29.36 inches Hg (994.3 mb)
Winds: variable direction winds at 6 MPH (5 knots; 2.6 m/s)
Visibility: 5 miles ( 8 km)
Ceiling: 1200 feet AGL
Clouds: broken clouds at 1200 feet AGL
overcast cloud deck at 2000 feet AGL
Weather: -RA BR  (light rain, mist)

METAR text: KSWF 221445Z VRB05KT 5SM -RA BR BKN012 OVC020 04/03 A2937
Conditions at: KSWF (NEWBURGH/STEWART, NY, US) observed 1445 UTC 22 March 2019
Temperature: 4.0°C (39°F)
Dewpoint: 3.0°C (37°F) [RH = 93%]
Pressure (altimeter): 29.37 inches Hg (994.7 mb)
Winds: variable direction winds at 6 MPH (5 knots; 2.6 m/s)
Visibility: 5 miles ( 8 km)
Ceiling: 1200 feet AGL
Clouds: broken clouds at 1200 feet AGL
overcast cloud deck at 2000 feet AGL
Weather: -RA BR  (light rain, mist)

METAR text: KSWF 221345Z 02010KT 5SM -RA BR BKN012 OVC020 04/03 A2938
Conditions at: KSWF (NEWBURGH/STEWART, NY, US) observed 1345 UTC 22 March 2019
Temperature: 4.0°C (39°F)
Dewpoint: 3.0°C (37°F) [RH = 93%]
Pressure (altimeter): 29.38 inches Hg (995.0 mb)
Winds: from the NNE (20 degrees) at 12 MPH (10 knots; 5.1 m/s)
Visibility: 5 miles ( 8 km)
Ceiling: 1200 feet AGL
Clouds: broken clouds at 1200 feet AGL
overcast cloud deck at 2000 feet AGL
Weather: -RA BR  (light rain, mist)

METAR text: KSWF 221245Z 01012G20KT 2 1/2SM -RA BR BKN008 OVC012 03/03 A2939
Conditions at: KSWF (NEWBURGH/STEWART, NY, US) observed 1245 UTC 22 March 2019
Temperature: 3.0°C (37°F)
Dewpoint: 3.0°C (37°F) [RH = 100%]
Pressure (altimeter): 29.39 inches Hg (995.3 mb)
Winds: from the N (10 degrees) at 14 MPH (12 knots; 6.2 m/s)
gusting to 23 MPH (20 knots; 10.3 m/s)
Visibility: 2.50 miles (4.02 km)
Ceiling: 800 feet AGL
Clouds: broken clouds at 800 feet AGL
overcast cloud deck at 1200 feet AGL
Weather: -RA BR  (light rain, mist)

METAR text: KSWF 221145Z 01012G20KT 2 1/2SM -RA BR BKN008 OVC012 03/03 A2939
Conditions at: KSWF (NEWBURGH/STEWART, NY, US) observed 1145 UTC 22 March 2019
Temperature: 3.0°C (37°F)
Dewpoint: 3.0°C (37°F) [RH = 100%]
Pressure (altimeter): 29.39 inches Hg (995.3 mb)
Winds: from the N (10 degrees) at 14 MPH (12 knots; 6.2 m/s)
gusting to 23 MPH (20 knots; 10.3 m/s)
Visibility: 2.50 miles (4.02 km)
Ceiling: 800 feet AGL
Clouds: broken clouds at 800 feet AGL
overcast cloud deck at 1200 feet AGL
Weather: -RA BR  (light rain, mist)

METAR text: KSWF 221045Z 02015KT 3SM -RA BR OVC008 04/04 A2938
Conditions at: KSWF (NEWBURGH/STEWART, NY, US) observed 1045 UTC 22 March 2019
Temperature: 4.0°C (39°F)
Dewpoint: 4.0°C (39°F) [RH = 100%]
Pressure (altimeter): 29.38 inches Hg (995.0 mb)
Winds: from the NNE (20 degrees) at 17 MPH (15 knots; 7.7 m/s)
Visibility: 3 miles ( 5 km)
Ceiling: 800 feet AGL
Clouds: overcast cloud deck at 800 feet AGL
Weather: -RA BR  (light rain, mist)

METAR text: KSWF 220945Z 02009KT 3SM -RA BR OVC008 04/04 A2938
Conditions at: KSWF (NEWBURGH/STEWART, NY, US) observed 0945 UTC 22 March 2019
Temperature: 4.0°C (39°F)
Dewpoint: 4.0°C (39°F) [RH = 100%]
Pressure (altimeter): 29.38 inches Hg (995.0 mb)
Winds: from the NNE (20 degrees) at 10 MPH (9 knots; 4.6 m/s)
Visibility: 3 miles ( 5 km)
Ceiling: 800 feet AGL
Clouds: overcast cloud deck at 800 feet AGL
Weather: -RA BR  (light rain, mist)

METAR text: KSWF 220845Z 02009KT 3SM -RA BR SCT007 OVC019 04/04 A2939
Conditions at: KSWF (NEWBURGH/STEWART, NY, US) observed 0845 UTC 22 March 2019
Temperature: 4.0°C (39°F)
Dewpoint: 4.0°C (39°F) [RH = 100%]
Pressure (altimeter): 29.39 inches Hg (995.3 mb)
Winds: from the NNE (20 degrees) at 10 MPH (9 knots; 4.6 m/s)
Visibility: 3 miles ( 5 km)
Ceiling: 1900 feet AGL
Clouds: scattered clouds at 700 feet AGL
overcast cloud deck at 1900 feet AGL
Weather: -RA BR  (light rain, mist)

METAR text: KSWF 220745Z 02009KT 3SM -RA BR SCT007 OVC019 04/04 A2942
Conditions at: KSWF (NEWBURGH/STEWART, NY, US) observed 0745 UTC 22 March 2019
Temperature: 4.0°C (39°F)
Dewpoint: 4.0°C (39°F) [RH = 100%]
Pressure (altimeter): 29.42 inches Hg (996.4 mb)
Winds: from the NNE (20 degrees) at 10 MPH (9 knots; 4.6 m/s)
Visibility: 3 miles ( 5 km)
Ceiling: 1900 feet AGL
Clouds: scattered clouds at 700 feet AGL
overcast cloud deck at 1900 feet AGL
Weather: -RA BR  (light rain, mist)

METAR text: KSWF 220645Z 06008KT 4SM -RA BR SCT007 OVC011 04/04 A2948
Conditions at: KSWF (NEWBURGH/STEWART, NY, US) observed 0645 UTC 22 March 2019
Temperature: 4.0°C (39°F)
Dewpoint: 4.0°C (39°F) [RH = 100%]
Pressure (altimeter): 29.48 inches Hg (998.4 mb)
Winds: from the ENE (60 degrees) at 9 MPH (8 knots; 4.1 m/s)
Visibility: 4 miles ( 6 km)
Ceiling: 1100 feet AGL
Clouds: scattered clouds at 700 feet AGL
overcast cloud deck at 1100 feet AGL
Weather: -RA BR  (light rain, mist)

METAR text: KSWF 220545Z 06008KT 4SM -RA BR OVC015 05/04 A2957
Conditions at: KSWF (NEWBURGH/STEWART, NY, US) observed 0545 UTC 22 March 2019
Temperature: 5.0°C (41°F)
Dewpoint: 4.0°C (39°F) [RH = 93%]
Pressure (altimeter): 29.57 inches Hg (1001.4 mb)
Winds: from the ENE (60 degrees) at 9 MPH (8 knots; 4.1 m/s)
Visibility: 4 miles ( 6 km)
Ceiling: 1500 feet AGL
Clouds: overcast cloud deck at 1500 feet AGL
Weather: -RA BR  (light rain, mist)

METAR text: KSWF 220445Z 07007KT 4SM -RA BR OVC015 05/04 A2963
Conditions at: KSWF (NEWBURGH/STEWART, NY, US) observed 0445 UTC 22 March 2019
Temperature: 5.0°C (41°F)
Dewpoint: 4.0°C (39°F) [RH = 93%]
Pressure (altimeter): 29.63 inches Hg (1003.5 mb)
Winds: from the ENE (70 degrees) at 8 MPH (7 knots; 3.6 m/s)
Visibility: 4 miles ( 6 km)
Ceiling: 1500 feet AGL
Clouds: overcast cloud deck at 1500 feet AGL
Weather: -RA BR  (light rain, mist)

METAR text: KSWF 220345Z 07007KT 10SM BKN025 OVC050 05/03 A2968
Conditions at: KSWF (NEWBURGH/STEWART, NY, US) observed 0345 UTC 22 March 2019
Temperature: 5.0°C (41°F)
Dewpoint: 3.0°C (37°F) [RH = 87%]
Pressure (altimeter): 29.68 inches Hg (1005.2 mb)
Winds: from the ENE (70 degrees) at 8 MPH (7 knots; 3.6 m/s)
Visibility: 10 or more miles (16+ km)
Ceiling: 2500 feet AGL
Clouds: broken clouds at 2500 feet AGL
overcast cloud deck at 5000 feet AGL
Weather: no significant weather observed at this time

METAR text: KSWF 220245Z 07007KT 10SM SCT040 OVC060 06/03 A2974
Conditions at: KSWF (NEWBURGH/STEWART, NY, US) observed 0245 UTC 22 March 2019
Temperature: 6.0°C (43°F)
Dewpoint: 3.0°C (37°F) [RH = 81%]
Pressure (altimeter): 29.74 inches Hg (1007.2 mb)
Winds: from the ENE (70 degrees) at 8 MPH (7 knots; 3.6 m/s)
Visibility: 10 or more miles (16+ km)
Ceiling: 6000 feet AGL
Clouds: scattered clouds at 4000 feet AGL
overcast cloud deck at 6000 feet AGL
Weather: no significant weather observed at this time

METAR text: KSWF 220145Z 08012KT 10SM SCT040 OVC060 05/03 A2976
Conditions at: KSWF (NEWBURGH/STEWART, NY, US) observed 0145 UTC 22 March 2019
Temperature: 5.0°C (41°F)
Dewpoint: 3.0°C (37°F) [RH = 87%]
Pressure (altimeter): 29.76 inches Hg (1007.9 mb)
Winds: from the E (80 degrees) at 14 MPH (12 knots; 6.2 m/s)
Visibility: 10 or more miles (16+ km)
Ceiling: 6000 feet AGL
Clouds: scattered clouds at 4000 feet AGL
overcast cloud deck at 6000 feet AGL
Weather: no significant weather observed at this time

METAR text: KSWF 220045Z 06010KT 10SM SCT040 OVC060 06/03 A2981
Conditions at: KSWF (NEWBURGH/STEWART, NY, US) observed 0045 UTC 22 March 2019
Temperature: 6.0°C (43°F)
Dewpoint: 3.0°C (37°F) [RH = 81%]
Pressure (altimeter): 29.81 inches Hg (1009.6 mb)
Winds: from the ENE (60 degrees) at 12 MPH (10 knots; 5.1 m/s)
Visibility: 10 or more miles (16+ km)
Ceiling: 6000 feet AGL
Clouds: scattered clouds at 4000 feet AGL
overcast cloud deck at 6000 feet AGL
Weather: no significant weather observed at this time

METAR text: KSWF 212345Z 07010KT 10SM SCT050 OVC060 06/04 A2983
Conditions at: KSWF (NEWBURGH/STEWART, NY, US) observed 2345 UTC 21 March 2019
Temperature: 6.0°C (43°F)
Dewpoint: 4.0°C (39°F) [RH = 87%]
Pressure (altimeter): 29.83 inches Hg (1010.2 mb)
Winds: from the ENE (70 degrees) at 12 MPH (10 knots; 5.1 m/s)
Visibility: 10 or more miles (16+ km)
Ceiling: 6000 feet AGL
Clouds: scattered clouds at 5000 feet AGL
overcast cloud deck at 6000 feet AGL
Weather: no significant weather observed at this time

METAR text: KSWF 212245Z 08010KT 10SM SCT050 BKN060 06/04 A2987
Conditions at: KSWF (NEWBURGH/STEWART, NY, US) observed 2245 UTC 21 March 2019
Temperature: 6.0°C (43°F)
Dewpoint: 4.0°C (39°F) [RH = 87%]
Pressure (altimeter): 29.87 inches Hg (1011.6 mb)
Winds: from the E (80 degrees) at 12 MPH (10 knots; 5.1 m/s)
Visibility: 10 or more miles (16+ km)
Ceiling: 6000 feet AGL
Clouds: scattered clouds at 5000 feet AGL
broken clouds at 6000 feet AGL
Weather: no significant weather observed at this time

METAR text: KSWF 212045Z 08008KT 10SM SCT020 BKN040 OVC070 07/05 A2994
Conditions at: KSWF (NEWBURGH/STEWART, NY, US) observed 2045 UTC 21 March 2019
Temperature: 7.0°C (45°F)
Dewpoint: 5.0°C (41°F) [RH = 87%]
Pressure (altimeter): 29.94 inches Hg (1014.0 mb)
Winds: from the E (80 degrees) at 9 MPH (8 knots; 4.1 m/s)
Visibility: 10 or more miles (16+ km)
Ceiling: 4000 feet AGL
Clouds: scattered clouds at 2000 feet AGL
broken clouds at 4000 feet AGL
overcast cloud deck at 7000 feet AGL
Weather: no significant weather observed at this time

METAR text: KSWF 211945Z 10010KT 10SM FEW020 SCT045 BKN080 07/05 A2996
Conditions at: KSWF (NEWBURGH/STEWART, NY, US) observed 1945 UTC 21 March 2019
Temperature: 7.0°C (45°F)
Dewpoint: 5.0°C (41°F) [RH = 87%]
Pressure (altimeter): 29.96 inches Hg (1014.6 mb)
Winds: from the E (100 degrees) at 12 MPH (10 knots; 5.1 m/s)
Visibility: 10 or more miles (16+ km)
Ceiling: 8000 feet AGL
Clouds: few clouds at 2000 feet AGL
scattered clouds at 4500 feet AGL
broken clouds at 8000 feet AGL
Weather: no significant weather observed at this time

METAR text: KSWF 211845Z 10008KT 6SM BR BKN012 OVC035 07/06 A3000
Conditions at: KSWF (NEWBURGH/STEWART, NY, US) observed 1845 UTC 21 March 2019
Temperature: 7.0°C (45°F)
Dewpoint: 6.0°C (43°F) [RH = 93%]
Pressure (altimeter): 30.00 inches Hg (1016.0 mb)
Winds: from the E (100 degrees) at 9 MPH (8 knots; 4.1 m/s)
Visibility: 6 miles (10 km)
Ceiling: 1200 feet AGL
Clouds: broken clouds at 1200 feet AGL
overcast cloud deck at 3500 feet AGL
Weather: BR  (mist)

METAR text: KSWF 211745Z 07008KT 6SM BR FEW010 BKN035 OVC045 06/06 A3003
Conditions at: KSWF (NEWBURGH/STEWART, NY, US) observed 1745 UTC 21 March 2019
Temperature: 6.0°C (43°F)
Dewpoint: 6.0°C (43°F) [RH = 100%]
Pressure (altimeter): 30.03 inches Hg (1017.0 mb)
Winds: from the ENE (70 degrees) at 9 MPH (8 knots; 4.1 m/s)
Visibility: 6 miles (10 km)
Ceiling: 3500 feet AGL
Clouds: few clouds at 1000 feet AGL
broken clouds at 3500 feet AGL
overcast cloud deck at 4500 feet AGL
Weather: BR  (mist)

METAR text: KSWF 211645Z 11008KT 5SM -RA BR BKN010 OVC015 06/06 A3007
Conditions at: KSWF (NEWBURGH/STEWART, NY, US) observed 1645 UTC 21 March 2019
Temperature: 6.0°C (43°F)
Dewpoint: 6.0°C (43°F) [RH = 100%]
Pressure (altimeter): 30.07 inches Hg (1018.4 mb)
Winds: from the ESE (110 degrees) at 9 MPH (8 knots; 4.1 m/s)
Visibility: 5 miles ( 8 km)
Ceiling: 1000 feet AGL
Clouds: broken clouds at 1000 feet AGL
overcast cloud deck at 1500 feet AGL
Weather: -RA BR  (light rain, mist)

METAR text: KSWF 211545Z VRB05KT 4SM -RA BR SCT007 OVC010 05/05 A3009
Conditions at: KSWF (NEWBURGH/STEWART, NY, US) observed 1545 UTC 21 March 2019
Temperature: 5.0°C (41°F)
Dewpoint: 5.0°C (41°F) [RH = 100%]
Pressure (altimeter): 30.09 inches Hg (1019.0 mb)
Winds: variable direction winds at 6 MPH (5 knots; 2.6 m/s)
Visibility: 4 miles ( 6 km)
Ceiling: 1000 feet AGL
Clouds: scattered clouds at 700 feet AGL
overcast cloud deck at 1000 feet AGL
Weather: -RA BR  (light rain, mist)

METAR text: KSWF 211445Z VRB05KT 3SM -RA BR SCT007 OVC010 05/05 A3012
Conditions at: KSWF (NEWBURGH/STEWART, NY, US) observed 1445 UTC 21 March 2019
Temperature: 5.0°C (41°F)
Dewpoint: 5.0°C (41°F) [RH = 100%]
Pressure (altimeter): 30.12 inches Hg (1020.1 mb)
Winds: variable direction winds at 6 MPH (5 knots; 2.6 m/s)
Visibility: 3 miles ( 5 km)
Ceiling: 1000 feet AGL
Clouds: scattered clouds at 700 feet AGL
overcast cloud deck at 1000 feet AGL
Weather: -RA BR  (light rain, mist)

METAR text: KSWF 211345Z VRB05KT 3SM -RA BR OVC010 04/04 A3013
Conditions at: KSWF (NEWBURGH/STEWART, NY, US) observed 1345 UTC 21 March 2019
Temperature: 4.0°C (39°F)
Dewpoint: 4.0°C (39°F) [RH = 100%]
Pressure (altimeter): 30.13 inches Hg (1020.4 mb)
Winds: variable direction winds at 6 MPH (5 knots; 2.6 m/s)
Visibility: 3 miles ( 5 km)
Ceiling: 1000 feet AGL
Clouds: overcast cloud deck at 1000 feet AGL
Weather: -RA BR  (light rain, mist)

METAR text: KSWF 211245Z VRB05KT 4SM -RA BR OVC010 04/03 A3016
Conditions at: KSWF (NEWBURGH/STEWART, NY, US) observed 1245 UTC 21 March 2019
Temperature: 4.0°C (39°F)
Dewpoint: 3.0°C (37°F) [RH = 93%]
Pressure (altimeter): 30.16 inches Hg (1021.4 mb)
Winds: variable direction winds at 6 MPH (5 knots; 2.6 m/s)
Visibility: 4 miles ( 6 km)
Ceiling: 1000 feet AGL
Clouds: overcast cloud deck at 1000 feet AGL
Weather: -RA BR  (light rain, mist)

Forecast for: KSWF (NEWBURGH/STEWART, NY, US)
Text: KSWF 222349Z 2300/2406 30020G33KT P6SM VCSH BKN040 BKN090
Forecast period: 0000 to 0600 UTC 23 March 2019
Forecast type: FROM: standard forecast or significant change
Winds: from the WNW (300 degrees) at 23 MPH (20 knots; 10.3 m/s)
gusting to 38 MPH (33 knots; 17.0 m/s)
Visibility: 6 or more miles 10+ km)
Ceiling: 4000 feet AGL
Clouds: broken clouds at 4000 feet AGL
broken clouds at 9000 feet AGL
Weather: VCSH  (showers in vicinity)
Text: FM230600 30023G36KT P6SM VCSH BKN040
Forecast period: 0600 to 1000 UTC 23 March 2019
Forecast type: FROM: standard forecast or significant change
Winds: from the WNW (300 degrees) at 26 MPH (23 knots; 11.8 m/s)
gusting to 41 MPH (36 knots; 18.5 m/s)
Visibility: 6 or more miles 10+ km)
Ceiling: 4000 feet AGL
Clouds: broken clouds at 4000 feet AGL
Weather: VCSH  (showers in vicinity)
Text: FM231000 30019G31KT P6SM SCT040 BKN090
Forecast period: 1000 to 1700 UTC 23 March 2019
Forecast type: FROM: standard forecast or significant change
Winds: from the WNW (300 degrees) at 22 MPH (19 knots; 9.8 m/s)
gusting to 36 MPH (31 knots; 15.9 m/s)
Visibility: 6 or more miles 10+ km)
Ceiling: 9000 feet AGL
Clouds: scattered clouds at 4000 feet AGL
broken clouds at 9000 feet AGL
Weather: no significant weather forecast for this period
Text: FM231700 31018G28KT P6SM SCT040
Forecast period: 1700 to 2200 UTC 23 March 2019
Forecast type: FROM: standard forecast or significant change
Winds: from the NW (310 degrees) at 21 MPH (18 knots; 9.3 m/s)
gusting to 32 MPH (28 knots; 14.4 m/s)
Visibility: 6 or more miles 10+ km)
Ceiling: at least 12,000 feet AGL
Clouds: scattered clouds at 4000 feet AGL
Weather: no significant weather forecast for this period
Text: FM232200 31014G22KT P6SM SKC
Forecast period: 2200 UTC 23 March 2019 to 0100 UTC 24 March 2019
Forecast type: FROM: standard forecast or significant change
Winds: from the NW (310 degrees) at 16 MPH (14 knots; 7.2 m/s)
gusting to 25 MPH (22 knots; 11.3 m/s)
Visibility: 6 or more miles 10+ km)
Clouds: clear skies
Weather: no significant weather forecast for this period
Text: FM240100 30010KT P6SM SKC
Forecast period: 0100 to 0300 UTC 24 March 2019
Forecast type: FROM: standard forecast or significant change
Winds: from the WNW (300 degrees) at 12 MPH (10 knots; 5.1 m/s)
Visibility: 6 or more miles 10+ km)
Clouds: clear skies
Weather: no significant weather forecast for this period
Text: FM240300 29006KT P6SM SKC AMD NOT SKED
Forecast period: 0300 to 0600 UTC 24 March 2019
Forecast type: FROM: standard forecast or significant change
Winds: from the WNW (290 degrees) at 7 MPH (6 knots; 3.1 m/s)
Visibility: 6 or more miles 10+ km)
Clouds: clear skies
Weather: no significant weather forecast for this period